Time;durP1;ratioP1;P1;durP2;ratioP2;P2;SDS_P1;SDS_P2;PMS_P1;PMS_P2;Temp;Humidity;BMP_temperature;BMP_pressure;BME280_temperature;BME280_humidity;BME280_pressure;Samples;Min_cycle;Max_cycle;Signal;HPM_P1;HPM_P2
2024/02/26 00:04:48;;;;;;;52.00;26.50;;;;;;;4.02;73.93;97639.84;431919;1263;108246;-39
2024/02/26 00:14:57;;;;;;;42.20;22.10;;;;;;;4.11;74.33;97638.46;432065;1264;99262;-39
2024/02/26 00:35:10;;;;;;;67.90;31.80;;;;;;;4.11;75.06;97630.98;432248;1260;98054;-40
2024/02/26 00:45:17;;;;;;;50.80;24.60;;;;;;;4.11;75.21;97626.80;432308;1260;110447;-40
2024/02/26 00:55:24;;;;;;;48.70;23.10;;;;;;;4.20;75.47;97625.86;432278;1260;107082;-39
2024/02/26 01:05:30;;;;;;;78.90;34.50;;;;;;;4.20;75.73;97624.09;432265;1260;97981;-40
2024/02/26 01:15:37;;;;;;;74.10;33.20;;;;;;;4.04;75.74;97632.63;432255;1264;108211;-39
2024/02/26 01:25:43;;;;;;;59.70;25.80;;;;;;;3.93;76.01;97630.33;432204;1260;99307;-39
2024/02/26 01:35:50;;;;;;;48.00;23.80;;;;;;;3.99;76.28;97625.98;432286;1264;111336;-40
2024/02/26 01:45:56;;;;;;;77.60;30.40;;;;;;;4.10;76.61;97627.91;432357;1264;107715;-40
2024/02/26 02:06:05;;;;;;;47.30;25.30;;;;;;;4.04;76.82;97625.59;432386;1264;99253;-40
2024/02/26 02:16:12;;;;;;;52.80;24.50;;;;;;;4.03;76.85;97624.71;432313;1264;108191;-40
2024/02/26 02:26:19;;;;;;;53.90;24.60;;;;;;;4.00;76.86;97628.17;433952;1258;99255;-40
2024/02/26 02:36:27;;;;;;;66.90;30.40;;;;;;;3.95;77.15;97622.23;433891;1260;107754;-39
2024/02/26 02:46:35;;;;;;;66.20;30.80;;;;;;;3.90;77.55;97620.13;433943;1259;101525;-43
2024/02/26 02:56:43;;;;;;;51.20;25.00;;;;;;;3.90;77.53;97619.64;433846;1258;110506;-40
2024/02/26 03:06:50;;;;;;;50.00;23.10;;;;;;;3.89;77.68;97613.38;433715;1261;107033;-39
2024/02/26 03:16:58;;;;;;;56.00;26.10;;;;;;;3.81;77.87;97602.85;433935;1261;99107;-39
2024/02/26 03:37:12;;;;;;;33.70;18.00;;;;;;;3.68;78.08;97593.76;433858;1257;106628;-40
2024/02/26 03:47:19;;;;;;;33.40;18.00;;;;;;;3.65;78.18;97593.66;433843;1258;99228;-40
2024/02/26 03:57:26;;;;;;;50.60;23.90;;;;;;;3.62;78.46;97593.96;433819;1261;109467;-39
2024/02/26 04:07:33;;;;;;;53.50;25.00;;;;;;;3.46;78.61;97599.64;433058;1257;1281723;-40
2024/02/26 04:17:40;;;;;;;34.10;19.20;;;;;;;3.33;78.54;97599.71;433647;1260;111756;-40
2024/02/26 04:27:48;;;;;;;33.50;17.40;;;;;;;3.23;78.70;97596.70;433780;1256;108770;-39
2024/02/26 04:37:55;;;;;;;36.50;18.30;;;;;;;3.22;79.23;97596.18;433848;1259;99221;-40
2024/02/26 04:48:00;;;;;;;47.10;23.90;;;;;;;3.22;79.50;97590.59;433988;1260;107655;-40
2024/02/26 04:58:06;;;;;;;56.10;26.30;;;;;;;3.10;79.64;97589.80;433903;1256;99390;-41
2024/02/26 05:08:13;;;;;;;42.90;20.20;;;;;;;3.02;79.75;97590.38;433877;1261;112291;-39
2024/02/26 05:18:21;;;;;;;91.00;39.60;;;;;;;3.04;79.83;97595.59;433825;1260;107979;-39
2024/02/26 05:28:28;;;;;;;84.00;36.30;;;;;;;3.02;79.77;97599.30;433963;1260;99375;-43
2024/02/26 05:38:35;;;;;;;94.10;42.10;;;;;;;2.92;80.03;97607.06;433642;1259;107852;-40
2024/02/26 05:48:42;;;;;;;92.90;39.20;;;;;;;2.78;80.02;97611.31;433992;1255;99253;-40
2024/02/26 05:58:50;;;;;;;68.70;33.80;;;;;;;2.69;80.14;97617.25;434059;1255;111804;-39
2024/02/26 06:08:56;;;;;;;53.30;25.10;;;;;;;2.79;80.25;97628.02;433800;1260;108235;-41
2024/02/26 06:19:04;;;;;;;39.80;22.60;;;;;;;3.17;80.56;97626.66;433681;1261;99292;-40
2024/02/26 06:29:11;;;;;;;74.10;35.30;;;;;;;3.53;80.74;97630.52;433806;1260;111902;-39
2024/02/26 06:39:18;;;;;;;62.00;32.10;;;;;;;4.30;81.32;97633.87;433660;1261;109341;-39
2024/02/26 06:49:26;;;;;;;59.00;31.00;;;;;;;5.04;80.66;97630.64;434010;1255;98853;-41
2024/02/26 06:59:32;;;;;;;62.50;32.70;;;;;;;5.45;80.32;97638.64;434029;1257;111394;-40
2024/02/26 07:09:42;;;;;;;67.40;34.30;;;;;;;6.18;80.25;97647.58;433867;1256;108203;-40
2024/02/26 07:19:49;;;;;;;79.00;37.80;;;;;;;7.09;79.95;97649.02;434137;1258;99230;-39
2024/02/26 07:29:56;;;;;;;61.20;33.10;;;;;;;8.33;79.87;97643.77;433867;1260;108267;-40
2024/02/26 07:40:05;;;;;;;60.00;32.60;;;;;;;9.31;79.31;97641.60;434120;1260;99231;-39
2024/02/26 07:50:13;;;;;;;54.80;29.20;;;;;;;10.37;79.02;97642.23;433838;1256;111107;-40
2024/02/26 08:00:20;;;;;;;32.00;17.70;;;;;;;11.12;77.92;97637.12;433807;1257;108715;-41
2024/02/26 08:10:27;;;;;;;32.80;19.50;;;;;;;11.91;76.22;97636.79;434264;1260;98106;-40
2024/02/26 08:20:39;;;;;;;31.20;17.90;;;;;;;12.05;74.76;97642.08;433861;1260;108220;-41
2024/02/26 08:30:45;;;;;;;35.10;18.30;;;;;;;11.30;73.38;97643.73;434027;1256;99330;-39
2024/02/26 08:40:52;;;;;;;28.00;15.70;;;;;;;10.96;73.01;97659.27;433940;1256;111937;-41
2024/02/26 08:50:59;;;;;;;38.70;15.90;;;;;;;11.28;73.22;97650.80;433743;1261;108292;-40
2024/02/26 09:01:06;;;;;;;13.90;9.10;;;;;;;12.00;72.69;97650.33;433949;1256;99234;-41
2024/02/26 09:11:14;;;;;;;14.20;8.50;;;;;;;12.31;70.64;97648.73;433926;1258;108522;-41
2024/02/26 09:31:28;;;;;;;20.50;12.50;;;;;;;12.85;69.11;97645.84;433969;1256;112106;-41
2024/02/26 09:41:35;;;;;;;22.60;12.00;;;;;;;12.79;67.10;97643.63;433884;1256;107832;-40
2024/02/26 09:51:43;;;;;;;17.60;9.80;;;;;;;12.61;65.93;97639.77;433735;1256;99231;-41
2024/02/26 10:01:51;;;;;;;16.70;11.00;;;;;;;12.69;65.51;97645.13;433887;1260;107929;-40
2024/02/26 10:22:07;;;;;;;10.20;7.20;;;;;;;13.34;65.12;97642.88;433890;1261;110611;-40
2024/02/26 10:42:20;;;;;;;11.90;8.50;;;;;;;13.23;62.56;97637.17;433883;1257;98863;-40
2024/02/26 10:52:31;;;;;;;14.80;8.80;;;;;;;13.13;62.89;97628.70;433964;1261;109557;-41
2024/02/26 11:02:39;;;;;;;16.90;8.90;;;;;;;13.25;62.43;97623.80;433829;1255;99215;-40
2024/02/26 11:12:48;;;;;;;16.00;8.30;;;;;;;13.45;62.31;97619.31;433972;1255;112386;-40
2024/02/26 11:22:56;;;;;;;14.00;8.50;;;;;;;13.23;62.10;97612.98;433825;1256;108903;-40
2024/02/26 11:33:03;;;;;;;15.30;9.60;;;;;;;13.03;62.24;97616.20;434118;1260;98015;-40
2024/02/26 11:43:11;;;;;;;15.90;9.60;;;;;;;13.11;62.98;97611.45;434082;1260;107158;-40
2024/02/26 11:53:30;;;;;;;18.00;10.00;;;;;;;12.91;62.39;97602.27;434100;1260;97987;-40
2024/02/26 12:03:39;;;;;;;15.10;8.50;;;;;;;12.93;62.86;97595.68;434650;1260;111394;-38
2024/02/26 12:13:50;;;;;;;10.60;7.10;;;;;;;13.13;63.91;97600.14;434006;1261;107795;-40
2024/02/26 12:24:07;;;;;;;9.40;6.00;;;;;;;13.38;63.88;97598.96;434203;1256;98019;-41
2024/02/26 12:34:16;;;;;;;10.80;7.10;;;;;;;13.53;63.75;97599.90;433942;1260;107873;-43
2024/02/26 12:44:27;;;;;;;11.40;7.40;;;;;;;13.46;64.01;97601.25;433976;1259;99227;-40
2024/02/26 12:54:34;;;;;;;12.90;7.90;;;;;;;13.29;64.60;97601.77;433929;1262;111287;-41
2024/02/26 13:04:42;;;;;;;10.60;5.80;;;;;;;13.28;64.97;97598.63;434789;1262;107880;-41
2024/02/26 13:14:59;;;;;;;9.00;5.80;;;;;;;13.38;65.17;97601.98;434448;1256;99250;-41
2024/02/26 13:25:07;;;;;;;10.80;6.20;;;;;;;13.40;65.22;97602.55;434776;1262;108609;-40
2024/02/26 13:35:15;;;;;;;15.90;8.50;;;;;;;13.04;65.52;97608.02;434008;1256;99334;-40
2024/02/26 13:45:22;;;;;;;10.30;7.40;;;;;;;12.75;66.13;97617.27;434111;1260;111434;-40
2024/02/26 13:55:31;;;;;;;12.40;7.00;;;;;;;12.68;66.97;97612.55;433939;1271;109300;-38
2024/02/26 14:05:38;;;;;;;12.30;7.80;;;;;;;12.74;67.69;97614.23;434047;1260;98355;-39
2024/02/26 14:15:46;;;;;;;11.80;8.10;;;;;;;12.56;68.34;97618.73;434170;1260;108738;-40
2024/02/26 14:25:53;;;;;;;11.40;8.40;;;;;;;12.48;68.86;97615.27;433980;1256;98867;-38
2024/02/26 14:36:00;;;;;;;10.20;7.00;;;;;;;12.42;69.20;97626.16;434110;1271;111972;-40
2024/02/26 14:46:07;;;;;;;12.30;8.40;;;;;;;12.36;69.71;97624.67;434016;1260;109370;-40
2024/02/26 14:56:13;;;;;;;13.60;8.90;;;;;;;12.29;70.12;97629.27;434046;1256;98850;-40
2024/02/26 15:06:21;;;;;;;13.10;8.00;;;;;;;12.22;70.56;97619.46;434000;1260;108677;-40
2024/02/26 15:16:28;;;;;;;14.10;9.00;;;;;;;12.28;70.71;97618.84;434403;1257;99324;-40
2024/02/26 15:26:35;;;;;;;33.70;14.40;;;;;;;12.31;71.14;97617.52;433951;1262;112893;-40
2024/02/26 15:36:43;;;;;;;33.80;14.70;;;;;;;12.23;71.58;97621.16;434378;1260;108690;-40
2024/02/26 15:46:50;;;;;;;25.20;11.80;;;;;;;12.10;71.83;97625.88;434259;1260;99257;-39
2024/02/26 15:56:56;;;;;;;19.60;10.20;;;;;;;11.94;72.13;97625.96;433973;1256;108302;-41
2024/02/26 16:07:10;;;;;;;19.00;11.60;;;;;;;11.86;72.52;97638.56;434077;1260;98025;-40
2024/02/26 16:17:20;;;;;;;23.40;14.10;;;;;;;11.81;73.11;97644.99;433800;1262;111291;-40
2024/02/26 16:27:27;;;;;;;18.90;11.80;;;;;;;11.67;73.47;97645.04;434127;1262;107614;-40
2024/02/26 16:37:35;;;;;;;20.70;10.50;;;;;;;11.49;73.69;97643.38;433845;1262;99255;-40
2024/02/26 16:47:43;;;;;;;19.80;12.60;;;;;;;11.41;74.31;97649.98;433894;1262;108103;-40
2024/02/26 16:57:50;;;;;;;18.90;12.40;;;;;;;11.34;75.03;97661.64;434267;1256;99232;-40
2024/02/26 17:07:58;;;;;;;25.20;15.20;;;;;;;11.26;75.60;97673.45;434095;1256;112239;-41
2024/02/26 17:18:12;;;;;;;31.30;16.80;;;;;;;11.23;75.89;97677.63;433856;1262;108597;-41
2024/02/26 17:28:20;;;;;;;65.90;29.60;;;;;;;11.25;76.24;97685.67;433949;1261;99203;-40
2024/02/26 17:38:26;;;;;;;106.20;47.30;;;;;;;11.27;76.60;97691.46;434005;1256;107880;-39
2024/02/26 17:48:34;;;;;;;119.80;58.60;;;;;;;11.23;76.94;97700.70;434125;1260;99847;-39
2024/02/26 17:58:41;;;;;;;116.70;54.30;;;;;;;11.14;77.25;97716.68;434304;1260;109892;-40
2024/02/26 18:08:49;;;;;;;124.10;56.20;;;;;;;11.04;77.30;97722.48;433902;1260;107490;-40
2024/02/26 18:18:56;;;;;;;57.70;31.50;;;;;;;10.99;77.40;97735.04;433967;1260;98843;-39
2024/02/26 18:39:10;;;;;;;38.80;21.90;;;;;;;10.83;77.70;97750.94;434055;1260;99240;-39
2024/02/26 18:49:18;;;;;;;39.70;22.80;;;;;;;10.71;77.51;97760.21;433930;1269;112177;-40
2024/02/26 18:59:27;;;;;;;39.00;20.70;;;;;;;10.58;77.36;97771.34;433925;1258;108346;-40
2024/02/26 19:09:35;;;;;;;39.50;24.00;;;;;;;10.43;77.42;97775.16;435342;1257;99200;-41
2024/02/26 19:19:42;;;;;;;63.10;29.60;;;;;;;10.16;77.33;97784.38;435500;1262;107692;-41
2024/02/26 19:29:48;;;;;;;64.30;32.20;;;;;;;9.75;77.34;97798.86;435687;1261;99272;-40
2024/02/26 19:50:02;;;;;;;63.60;33.00;;;;;;;9.23;77.55;97825.58;435015;1257;108509;-40
2024/02/26 20:00:09;;;;;;;73.10;40.50;;;;;;;9.08;77.79;97833.04;435550;1260;99330;-40
2024/02/26 20:10:16;;;;;;;82.30;42.70;;;;;;;9.00;78.46;97843.50;434588;1269;106587;-40
2024/02/26 20:20:26;;;;;;;72.70;39.90;;;;;;;8.83;78.45;97854.02;435268;1258;97928;-40
2024/02/26 20:30:37;;;;;;;67.50;36.10;;;;;;;8.62;78.38;97856.95;435242;1258;111112;-40
2024/02/26 20:40:44;;;;;;;66.90;36.40;;;;;;;8.58;78.76;97857.85;433914;1261;108728;-41
2024/02/26 20:50:52;;;;;;;69.70;39.50;;;;;;;8.53;79.09;97864.97;434020;1270;98737;-40
2024/02/26 21:01:00;;;;;;;78.20;41.40;;;;;;;8.29;78.71;97883.80;433975;1268;108390;-39
2024/02/26 21:11:06;;;;;;;88.90;45.10;;;;;;;7.76;78.95;97886.04;434624;1258;98831;-40
2024/02/26 21:21:13;;;;;;;79.70;42.50;;;;;;;7.55;79.32;97898.60;434920;1274;111529;-39
2024/02/26 21:31:21;;;;;;;79.10;43.70;;;;;;;7.58;79.79;97900.96;434419;1257;107175;-41
2024/02/26 21:41:29;;;;;;;93.60;51.40;;;;;;;7.53;79.82;97918.67;434025;1269;99231;-39
2024/02/26 21:51:41;;;;;;;121.70;62.80;;;;;;;7.24;79.82;97931.59;433837;1260;108031;-40
2024/02/26 22:01:48;;;;;;;119.10;65.30;;;;;;;6.78;79.77;97932.96;434037;1257;99259;-40
2024/02/26 22:11:54;;;;;;;111.40;59.50;;;;;;;6.48;80.11;97944.16;433866;1258;110846;-40
2024/02/26 22:22:01;;;;;;;109.90;60.40;;;;;;;6.28;80.30;97948.65;434036;1265;108299;-40
2024/02/26 22:32:09;;;;;;;143.10;70.00;;;;;;;6.09;80.46;97955.80;433897;1261;98081;-41
2024/02/26 22:42:16;;;;;;;141.10;74.30;;;;;;;5.92;80.83;97965.04;433796;1260;109419;-40
2024/02/26 22:52:23;;;;;;;143.10;78.90;;;;;;;5.81;81.51;97968.73;434040;1261;99260;-39
2024/02/26 23:12:36;;;;;;;114.20;60.70;;;;;;;6.18;82.92;97980.79;434007;1256;107478;-41
2024/02/26 23:22:43;;;;;;;100.90;53.10;;;;;;;6.42;83.06;97989.71;434026;1260;99064;-40
2024/02/26 23:32:50;;;;;;;106.60;55.50;;;;;;;6.57;83.23;97994.72;433763;1261;107965;-41
2024/02/26 23:42:58;;;;;;;100.60;53.20;;;;;;;6.70;83.42;97999.87;433874;1261;97996;-40
2024/02/26 23:53:05;;;;;;;103.00;54.50;;;;;;;6.71;83.48;98001.31;434045;1262;111265;-41
